createdAt,value
2022-10-20T00:02:00.582Z,11.38
2022-10-20T00:04:29.804Z,11.34
2022-10-20T00:06:57.101Z,11.24
2022-10-20T00:09:24.364Z,11.07
2022-10-20T00:11:51.632Z,11.07
2022-10-20T00:14:18.838Z,11.12
2022-10-20T00:16:46.294Z,11.10
2022-10-20T00:19:13.626Z,11.05
2022-10-20T00:21:40.896Z,11.13
2022-10-20T00:24:08.129Z,10.96
2022-10-20T00:26:35.416Z,10.86
2022-10-20T00:29:04.037Z,10.93
2022-10-20T00:31:31.520Z,10.93
2022-10-20T00:33:58.721Z,10.91
2022-10-20T00:36:26.120Z,10.92
2022-10-20T00:38:58.507Z,10.95
2022-10-20T00:41:25.895Z,10.91
2022-10-20T00:43:55.027Z,10.83
2022-10-20T00:46:24.355Z,10.88
2022-10-20T00:49:00.951Z,10.92
2022-10-20T00:51:29.303Z,10.95
2022-10-20T00:54:03.945Z,10.85
2022-10-20T00:56:31.333Z,10.89
2022-10-20T00:58:58.563Z,10.91
2022-10-20T01:01:25.840Z,10.82
2022-10-20T01:03:53.064Z,10.89
2022-10-20T01:06:22.338Z,10.91
2022-10-20T01:08:53.043Z,10.88
2022-10-20T01:11:33.378Z,10.85
2022-10-20T01:14:26.336Z,10.86
2022-10-20T01:17:12.465Z,10.93
2022-10-20T01:19:45.886Z,11.02
2022-10-20T01:22:38.072Z,11.13
2022-10-20T01:25:17.665Z,11.23
2022-10-20T01:27:53.423Z,11.15
2022-10-20T01:30:22.119Z,11.17
2022-10-20T01:33:00.106Z,11.16
2022-10-20T01:35:35.537Z,11.20
2022-10-20T01:38:47.907Z,11.10
2022-10-20T01:41:43.053Z,11.09
2022-10-20T01:44:11.467Z,10.99
2022-10-20T01:46:39.736Z,10.95
2022-10-20T01:49:07.037Z,11.09
2022-10-20T01:51:34.394Z,11.20
2022-10-20T01:54:01.704Z,11.07
2022-10-20T01:56:39.879Z,11.24
2022-10-20T01:59:32.028Z,11.30
2022-10-20T02:02:08.067Z,11.17
2022-10-20T02:04:59.035Z,11.22
2022-10-20T02:07:30.306Z,11.24
2022-10-20T02:10:26.295Z,11.38
2022-10-20T02:12:59.414Z,11.34
2022-10-20T02:15:27.781Z,11.30
2022-10-20T02:17:59.094Z,11.26
2022-10-20T02:20:27.169Z,11.22
2022-10-20T02:22:54.456Z,11.16
2022-10-20T02:25:21.747Z,11.27
2022-10-20T02:27:52.139Z,11.19
2022-10-20T02:30:19.481Z,11.16
2022-10-20T02:32:52.829Z,11.20
2022-10-20T02:35:22.861Z,11.16
2022-10-20T02:37:50.145Z,11.29
2022-10-20T02:40:17.537Z,11.41
2022-10-20T02:42:44.909Z,11.47
2022-10-20T02:45:12.151Z,11.27
2022-10-20T02:47:39.741Z,11.36
2022-10-20T02:50:07.569Z,11.34
2022-10-20T02:52:34.889Z,11.37
2022-10-20T02:55:02.316Z,11.20
2022-10-20T02:57:29.739Z,11.09
2022-10-20T02:59:57.120Z,10.99
2022-10-20T03:02:24.359Z,11.03
2022-10-20T03:04:51.576Z,11.09
2022-10-20T03:07:19.160Z,11.03
2022-10-20T03:09:46.529Z,11.03
2022-10-20T03:12:13.848Z,11.06
2022-10-20T03:14:42.907Z,11.23
2022-10-20T03:17:10.339Z,11.36
2022-10-20T03:19:37.576Z,11.27
2022-10-20T03:22:04.881Z,11.31
2022-10-20T03:24:32.095Z,11.37
2022-10-20T03:26:59.411Z,11.44
2022-10-20T03:29:26.698Z,11.40
2022-10-20T03:31:54.018Z,11.46
2022-10-20T03:34:21.405Z,11.64
2022-10-20T03:36:48.758Z,11.48
2022-10-20T03:39:16.091Z,11.43
2022-10-20T03:41:43.368Z,11.44
2022-10-20T03:44:11.231Z,11.43
2022-10-20T03:46:38.649Z,11.48
2022-10-20T03:49:05.953Z,11.47
2022-10-20T03:51:33.260Z,11.61
2022-10-20T03:54:00.613Z,11.61
2022-10-20T03:56:27.936Z,11.71
2022-10-20T03:58:55.201Z,11.71
2022-10-20T04:01:24.758Z,11.91
2022-10-20T04:03:51.957Z,11.85
2022-10-20T04:06:19.338Z,11.74
2022-10-20T04:08:47.121Z,11.77
2022-10-20T04:11:14.459Z,11.74
2022-10-20T04:13:41.785Z,11.74
2022-10-20T04:16:09.119Z,11.71
2022-10-20T04:18:36.383Z,11.53
2022-10-20T04:21:03.829Z,11.48
2022-10-20T04:23:31.124Z,11.53
2022-10-20T04:25:58.559Z,11.51
2022-10-20T04:28:25.930Z,11.48
2022-10-20T04:30:53.425Z,11.43
2022-10-20T04:33:20.935Z,11.54
2022-10-20T04:35:48.442Z,11.58
2022-10-20T04:38:15.666Z,11.65
2022-10-20T04:40:42.994Z,11.67
2022-10-20T04:43:10.544Z,11.46
2022-10-20T04:45:37.976Z,11.51
2022-10-20T04:48:05.862Z,11.58
2022-10-20T04:50:33.209Z,11.64
2022-10-20T04:53:08.009Z,11.67
2022-10-20T04:55:35.702Z,11.60
2022-10-20T04:58:03.115Z,11.56
2022-10-20T05:00:30.439Z,11.57
2022-10-20T05:02:57.777Z,11.61
2022-10-20T05:05:25.784Z,11.54
2022-10-20T05:07:53.840Z,11.48
2022-10-20T05:10:21.280Z,11.56
2022-10-20T05:12:48.655Z,11.51
2022-10-20T05:15:16.267Z,11.47
2022-10-20T05:17:44.866Z,11.31
2022-10-20T05:20:15.454Z,11.30
2022-10-20T05:22:43.703Z,11.24
2022-10-20T05:28:35.377Z,11.36
2022-10-20T05:31:07.304Z,11.38
2022-10-20T05:33:35.100Z,11.40
2022-10-20T05:36:12.607Z,11.36
2022-10-20T05:38:40.924Z,11.50
2022-10-20T05:41:13.456Z,11.30
2022-10-20T05:43:40.970Z,11.20
2022-10-20T05:46:08.791Z,11.16
2022-10-20T05:48:39.471Z,11.20
2022-10-20T05:51:14.583Z,11.00
2022-10-20T05:53:43.254Z,10.85
2022-10-20T05:56:13.046Z,10.98
2022-10-20T05:58:40.544Z,11.00
2022-10-20T06:01:09.669Z,11.00
2022-10-20T06:03:37.091Z,11.10
2022-10-20T06:06:04.649Z,11.12
2022-10-20T06:08:32.793Z,11.15
2022-10-20T06:11:07.404Z,11.15
2022-10-20T06:13:39.326Z,11.46
2022-10-20T06:16:20.365Z,11.65
2022-10-20T06:18:48.115Z,11.71
2022-10-20T06:21:22.872Z,11.50
2022-10-20T06:23:50.344Z,11.60
2022-10-20T06:26:22.376Z,11.78
2022-10-20T06:28:53.272Z,11.87
2022-10-20T06:31:31.040Z,11.98
2022-10-20T06:33:59.004Z,11.94
2022-10-20T06:36:26.678Z,11.77
2022-10-20T06:38:58.685Z,11.89
2022-10-20T06:41:27.975Z,11.95
2022-10-20T06:43:59.201Z,11.71
2022-10-20T06:46:28.565Z,11.82
2022-10-20T06:48:58.675Z,11.71
2022-10-20T06:51:26.579Z,11.71
2022-10-20T06:53:53.825Z,11.78
2022-10-20T06:56:23.276Z,11.81
2022-10-20T06:58:54.457Z,12.14
2022-10-20T07:01:23.562Z,12.15
2022-10-20T07:03:53.432Z,12.19
2022-10-20T07:06:23.611Z,12.29
2022-10-20T07:08:51.264Z,12.22
2022-10-20T07:11:19.942Z,12.30
2022-10-20T07:13:49.515Z,12.16
2022-10-20T07:16:19.105Z,12.50
2022-10-20T07:18:46.877Z,14.58
2022-10-20T07:21:18.748Z,15.72
2022-10-20T07:23:46.349Z,16.01
2022-10-20T07:26:14.844Z,16.06
2022-10-20T07:28:43.626Z,15.98
2022-10-20T07:31:13.271Z,14.41
2022-10-20T07:33:41.090Z,13.26
2022-10-20T07:36:19.374Z,12.60
2022-10-20T07:38:47.127Z,12.60
2022-10-20T07:41:14.920Z,12.52
2022-10-20T07:43:42.866Z,12.39
2022-10-20T07:46:10.883Z,12.33
2022-10-20T07:48:38.579Z,12.47
2022-10-20T07:51:25.073Z,12.60
2022-10-20T07:53:59.665Z,12.47
2022-10-20T07:56:30.296Z,12.40
2022-10-20T07:58:58.631Z,12.46
2022-10-20T08:01:26.129Z,12.32
2022-10-20T08:03:53.600Z,12.24
2022-10-20T08:06:21.286Z,12.52
2022-10-20T08:08:48.912Z,12.72
2022-10-20T08:11:16.934Z,12.84
2022-10-20T08:13:44.631Z,12.57
2022-10-20T08:16:22.437Z,12.25
2022-10-20T08:21:31.342Z,12.40
2022-10-20T08:23:58.646Z,12.46
2022-10-20T08:26:26.485Z,12.53
2022-10-20T08:28:54.510Z,12.81
2022-10-20T08:31:22.365Z,12.61
2022-10-20T08:33:52.846Z,12.49
2022-10-20T08:36:21.090Z,12.73
2022-10-20T08:38:48.742Z,12.91
2022-10-20T08:41:20.102Z,13.00
2022-10-20T08:43:48.861Z,12.88
2022-10-20T08:48:45.056Z,13.32
2022-10-20T08:51:21.530Z,13.36
2022-10-20T08:53:51.014Z,13.43
2022-10-20T08:56:18.877Z,13.52
2022-10-20T08:58:46.723Z,13.43
2022-10-20T09:01:33.035Z,13.51
2022-10-20T09:04:14.251Z,13.73
2022-10-20T09:06:42.263Z,13.93
2022-10-20T09:09:18.171Z,14.13
2022-10-20T09:11:45.869Z,14.13
2022-10-20T09:14:13.220Z,14.04
2022-10-20T09:16:58.656Z,13.89
2022-10-20T09:19:27.609Z,14.17
2022-10-20T09:21:57.934Z,14.34
2022-10-20T09:24:27.995Z,14.34
2022-10-20T09:26:59.897Z,14.25
2022-10-20T09:29:38.125Z,14.35
2022-10-20T09:35:32.362Z,13.94
2022-10-20T09:38:20.082Z,13.90
2022-10-20T09:40:59.014Z,13.99
2022-10-20T09:43:26.778Z,14.17
2022-10-20T09:45:56.593Z,14.14
2022-10-20T09:48:37.114Z,14.11
2022-10-20T09:51:06.085Z,13.97
2022-10-20T09:53:58.681Z,14.07
2022-10-20T09:56:28.394Z,14.32
2022-10-20T09:58:56.553Z,14.55
2022-10-20T10:01:24.455Z,14.62
2022-10-20T10:03:53.362Z,14.82
2022-10-20T10:06:43.662Z,14.61
2022-10-20T10:09:38.140Z,14.32
2022-10-20T10:12:06.587Z,14.21
2022-10-20T10:14:34.125Z,14.06
2022-10-20T10:17:02.240Z,13.77
2022-10-20T10:19:33.239Z,13.80
2022-10-20T10:22:01.902Z,13.96
2022-10-20T10:24:29.176Z,14.11
2022-10-20T10:26:57.389Z,14.10
2022-10-20T10:29:24.702Z,14.07
2022-10-20T10:31:58.218Z,14.17
2022-10-20T10:34:44.012Z,14.24
2022-10-20T10:37:14.108Z,14.49
2022-10-20T10:39:42.270Z,14.41
2022-10-20T10:42:26.466Z,14.48
2022-10-20T10:45:06.134Z,14.49
2022-10-20T10:48:11.536Z,14.49
2022-10-20T10:50:57.288Z,14.54
2022-10-20T10:53:33.432Z,14.22
2022-10-20T10:56:14.475Z,14.38
2022-10-20T10:58:47.138Z,14.40
2022-10-20T11:01:23.551Z,14.46
2022-10-20T11:04:31.499Z,14.34
2022-10-20T11:07:09.680Z,14.58
2022-10-20T11:09:43.749Z,14.82
2022-10-20T11:12:29.422Z,14.59
2022-10-20T11:15:25.173Z,14.80
2022-10-20T11:18:05.835Z,14.71
2022-10-20T11:20:52.199Z,14.69
2022-10-20T11:23:50.772Z,14.89
2022-10-20T11:26:44.882Z,14.95
2022-10-20T11:29:24.859Z,14.85
2022-10-20T11:32:03.691Z,15.22
2022-10-20T11:34:36.528Z,15.17
2022-10-20T11:37:08.060Z,15.11
2022-10-20T11:39:43.066Z,15.13
2022-10-20T11:42:31.120Z,14.95
2022-10-20T11:45:00.331Z,15.06
2022-10-20T11:47:39.420Z,15.09
2022-10-20T11:50:07.372Z,14.76
2022-10-20T11:52:40.561Z,14.55
2022-10-20T11:55:20.121Z,14.58
2022-10-20T11:58:01.181Z,14.52
2022-10-20T12:00:53.204Z,14.71
2022-10-20T12:03:44.908Z,14.69
2022-10-20T12:06:31.295Z,14.65
2022-10-20T12:09:50.042Z,14.76
2022-10-20T12:12:21.331Z,14.65
2022-10-20T12:14:52.438Z,14.67
2022-10-20T12:17:35.875Z,14.68
2022-10-20T12:20:21.949Z,14.73
2022-10-20T12:22:54.183Z,14.67
2022-10-20T12:25:27.799Z,14.64
2022-10-20T12:28:19.799Z,14.73
2022-10-20T12:31:03.226Z,14.98
2022-10-20T12:33:49.125Z,14.78
2022-10-20T12:36:19.580Z,14.99
2022-10-20T12:38:52.795Z,15.11
2022-10-20T12:41:26.399Z,14.98
2022-10-20T12:43:54.416Z,15.34
2022-10-20T12:46:23.692Z,15.43
2022-10-20T12:48:56.858Z,15.36
2022-10-20T12:51:33.212Z,15.11
2022-10-20T12:54:22.232Z,15.33
2022-10-20T12:56:49.637Z,15.57
2022-10-20T12:59:29.257Z,15.88
2022-10-20T13:02:08.972Z,15.99
2022-10-20T13:04:56.300Z,15.97
2022-10-20T13:07:46.880Z,15.89
2022-10-20T13:10:30.375Z,15.67
2022-10-20T13:13:03.633Z,15.71
2022-10-20T13:15:30.925Z,15.48
2022-10-20T13:18:00.303Z,15.50
2022-10-20T13:20:37.019Z,15.69
2022-10-20T13:23:04.509Z,15.78
2022-10-20T13:25:36.089Z,15.79
2022-10-20T13:28:19.753Z,15.85
2022-10-20T13:30:56.156Z,15.82
2022-10-20T13:33:58.744Z,15.64
2022-10-20T13:36:44.358Z,15.61
2022-10-20T13:39:40.925Z,15.84
2022-10-20T13:42:17.728Z,15.68
2022-10-20T13:45:03.479Z,15.74
2022-10-20T13:47:48.406Z,15.87
2022-10-20T13:50:20.943Z,16.10
2022-10-20T13:52:51.007Z,16.02
2022-10-20T13:55:23.394Z,15.72
2022-10-20T13:57:55.508Z,15.68
2022-10-20T14:00:30.611Z,15.62
2022-10-20T14:03:04.938Z,15.71
2022-10-20T14:05:39.057Z,15.53
2022-10-20T14:08:10.786Z,15.58
2022-10-20T14:11:04.761Z,15.81
2022-10-20T14:13:34.529Z,15.95
2022-10-20T14:16:03.644Z,15.78
2022-10-20T14:18:32.881Z,15.58
2022-10-20T14:21:04.950Z,15.61
2022-10-20T14:23:35.625Z,15.75
2022-10-20T14:26:03.982Z,15.74
2022-10-20T14:28:33.042Z,15.79
2022-10-20T14:31:00.479Z,15.88
2022-10-20T14:33:28.885Z,15.92
2022-10-20T14:35:57.489Z,15.89
2022-10-20T14:38:37.986Z,15.79
2022-10-20T14:41:06.813Z,15.79
2022-10-20T14:43:43.883Z,15.79
2022-10-20T14:46:13.025Z,15.71
2022-10-20T14:48:47.959Z,15.57
2022-10-20T14:51:30.418Z,15.43
2022-10-20T14:54:19.239Z,15.29
2022-10-20T14:56:48.477Z,15.20
2022-10-20T14:59:20.052Z,15.11
2022-10-20T15:02:11.421Z,15.17
2022-10-20T15:04:42.479Z,15.10
2022-10-20T15:07:29.072Z,15.10
2022-10-20T15:10:07.083Z,15.00
2022-10-20T15:12:37.214Z,14.98
2022-10-20T15:15:19.029Z,14.92
2022-10-20T15:18:04.639Z,14.68
2022-10-20T15:20:32.986Z,14.72
2022-10-20T15:23:16.645Z,14.57
2022-10-20T15:26:05.430Z,14.71
2022-10-20T15:28:45.670Z,14.59
2022-10-20T15:31:12.978Z,14.51
2022-10-20T15:33:40.712Z,14.40
2022-10-20T15:36:15.885Z,14.25
2022-10-20T15:38:43.459Z,14.17
2022-10-20T15:41:21.120Z,14.07
2022-10-20T15:43:48.464Z,14.00
2022-10-20T15:46:16.092Z,14.00
2022-10-20T15:48:43.747Z,13.97
2022-10-20T15:51:23.256Z,13.90
2022-10-20T15:53:50.688Z,13.87
2022-10-20T15:56:18.510Z,13.83
2022-10-20T15:58:46.114Z,13.82
2022-10-20T16:01:14.296Z,13.72
2022-10-20T16:03:43.481Z,13.59
2022-10-20T16:06:13.629Z,13.55
2022-10-20T16:08:41.794Z,13.45
2022-10-20T16:11:09.426Z,13.39
2022-10-20T16:13:38.756Z,13.39
2022-10-20T16:16:07.690Z,13.25
2022-10-20T16:18:35.120Z,13.16
2022-10-20T16:21:03.704Z,13.19
2022-10-20T16:23:31.086Z,13.10
2022-10-20T16:25:58.319Z,13.05
2022-10-20T16:28:25.894Z,12.90
2022-10-20T16:31:08.124Z,12.79
2022-10-20T16:33:35.658Z,12.84
2022-10-20T16:38:39.069Z,12.87
2022-10-20T16:41:09.389Z,12.88
2022-10-20T16:43:40.744Z,12.84
2022-10-20T16:46:08.440Z,12.77
2022-10-20T16:48:37.687Z,12.66
2022-10-20T16:51:09.868Z,12.64
2022-10-20T16:53:37.320Z,12.54
2022-10-20T16:56:05.008Z,12.66
2022-10-20T16:58:32.351Z,12.66
2022-10-20T17:01:00.892Z,12.46
2022-10-20T17:03:29.709Z,12.32
2022-10-20T17:05:58.206Z,12.37
2022-10-20T17:08:26.390Z,12.40
2022-10-20T17:11:01.204Z,12.39
2022-10-20T17:13:28.788Z,12.14
2022-10-20T17:15:56.375Z,12.35
2022-10-20T17:18:24.126Z,12.28
2022-10-20T17:20:54.807Z,12.22
2022-10-20T17:23:23.038Z,12.19
2022-10-20T17:25:51.234Z,12.02
2022-10-20T17:28:18.638Z,12.06
2022-10-20T17:30:46.439Z,12.05
2022-10-20T17:33:13.947Z,12.08
2022-10-20T17:35:41.266Z,11.84
2022-10-20T17:38:08.562Z,11.79
2022-10-20T17:40:37.625Z,11.82
2022-10-20T17:43:05.177Z,11.79
2022-10-20T17:45:34.973Z,11.57
2022-10-20T17:48:04.948Z,11.63
2022-10-20T17:50:32.211Z,11.51
2022-10-20T17:53:01.290Z,11.31
2022-10-20T17:55:28.991Z,11.31
2022-10-20T17:57:56.370Z,11.46
2022-10-20T18:00:43.828Z,11.23
2022-10-20T18:03:11.040Z,11.33
2022-10-20T18:05:38.385Z,11.37
2022-10-20T18:08:05.851Z,11.36
2022-10-20T18:10:33.113Z,11.16
2022-10-20T18:13:00.430Z,11.19
2022-10-20T18:15:27.674Z,11.16
2022-10-20T18:17:54.942Z,11.27
2022-10-20T18:20:22.336Z,11.30
2022-10-20T18:22:49.877Z,11.29
2022-10-20T18:25:18.587Z,11.27
2022-10-20T18:27:46.469Z,11.36
2022-10-20T18:30:15.379Z,11.36
2022-10-20T18:32:43.194Z,11.40
2022-10-20T18:35:11.262Z,11.27
2022-10-20T18:37:39.056Z,11.17
2022-10-20T18:40:08.111Z,11.19
2022-10-20T18:42:36.061Z,11.23
2022-10-20T18:45:03.936Z,11.16
2022-10-20T18:47:31.887Z,11.23
2022-10-20T18:50:01.214Z,11.16
2022-10-20T18:52:29.105Z,11.19
2022-10-20T18:54:56.763Z,11.33
2022-10-20T18:57:24.271Z,11.36
2022-10-20T18:59:53.299Z,11.24
2022-10-20T19:02:20.767Z,11.23
2022-10-20T19:04:48.473Z,11.17
2022-10-20T19:07:16.003Z,11.02
2022-10-20T19:09:43.979Z,11.06
2022-10-20T19:12:11.532Z,10.96
2022-10-20T19:14:39.510Z,11.03
2022-10-20T19:17:07.515Z,10.98
2022-10-20T19:19:37.553Z,10.95
2022-10-20T19:22:05.776Z,10.88
2022-10-20T19:24:34.949Z,10.88
2022-10-20T19:27:21.317Z,10.80
2022-10-20T19:29:50.164Z,10.80
2022-10-20T19:32:18.777Z,10.75
2022-10-20T19:34:46.464Z,10.86
2022-10-20T19:37:14.292Z,10.80
2022-10-20T19:39:42.669Z,10.80
2022-10-20T19:42:10.472Z,10.91
2022-10-20T19:44:38.607Z,10.89
2022-10-20T19:47:08.310Z,10.72
2022-10-20T19:49:36.819Z,10.68
2022-10-20T19:52:05.290Z,10.79
2022-10-20T19:54:33.611Z,10.86
2022-10-20T19:57:01.360Z,10.78
2022-10-20T19:59:32.526Z,10.89
2022-10-20T20:02:04.304Z,10.80
2022-10-20T20:04:32.211Z,10.80
2022-10-20T20:07:02.157Z,10.75
2022-10-20T20:09:30.840Z,10.69
2022-10-20T20:11:58.655Z,10.69
2022-10-20T20:14:26.930Z,10.59
2022-10-20T20:16:55.485Z,10.59
2022-10-20T20:19:23.749Z,10.48
2022-10-20T20:21:51.741Z,10.49
2022-10-20T20:24:20.127Z,10.67
2022-10-20T20:26:48.179Z,10.71
2022-10-20T20:29:15.757Z,10.44
2022-10-20T20:31:43.192Z,10.48
2022-10-20T20:34:10.835Z,10.55
2022-10-20T20:36:39.805Z,10.33
2022-10-20T20:39:10.024Z,10.38
2022-10-20T20:41:37.671Z,10.38
2022-10-20T20:44:08.263Z,10.34
2022-10-20T20:46:36.441Z,10.28
2022-10-20T20:49:04.230Z,10.18
2022-10-20T20:51:35.194Z,10.10
2022-10-20T20:54:03.318Z,10.10
2022-10-20T20:56:31.542Z,10.06
2022-10-20T20:58:59.385Z,10.03
2022-10-20T21:01:28.782Z,9.97
2022-10-20T21:03:58.330Z,10.00
2022-10-20T21:06:33.266Z,10.00
2022-10-20T21:09:01.880Z,10.06
2022-10-20T21:11:30.168Z,10.00
2022-10-20T21:13:59.215Z,9.89
2022-10-20T21:16:28.925Z,9.89
2022-10-20T21:18:58.317Z,9.82
2022-10-20T21:21:29.604Z,9.78
2022-10-20T21:23:57.499Z,9.68
2022-10-20T21:26:25.165Z,9.87
2022-10-20T21:28:53.303Z,9.85
2022-10-20T21:31:22.663Z,9.87
2022-10-20T21:33:51.556Z,9.79
2022-10-20T21:36:20.088Z,9.93
2022-10-20T21:38:47.787Z,9.94
2022-10-20T21:41:16.486Z,9.86
2022-10-20T21:43:47.251Z,9.87
2022-10-20T21:46:23.106Z,9.93
2022-10-20T21:48:52.190Z,9.80
2022-10-20T21:51:32.514Z,9.68
2022-10-20T21:54:02.392Z,9.66
2022-10-20T21:56:29.904Z,9.66
2022-10-20T21:58:57.612Z,9.70
2022-10-20T22:01:26.159Z,9.76
2022-10-20T22:03:55.229Z,9.66
2022-10-20T22:06:25.271Z,9.58
2022-10-20T22:08:57.236Z,9.66
2022-10-20T22:11:27.860Z,9.63
2022-10-20T22:13:55.985Z,9.63
2022-10-20T22:16:26.269Z,9.65
2022-10-20T22:19:05.221Z,9.62
2022-10-20T22:21:35.547Z,9.78
2022-10-20T22:24:04.390Z,9.75
2022-10-20T22:26:32.243Z,9.78
2022-10-20T22:29:00.762Z,9.78
2022-10-20T22:31:28.448Z,9.70
2022-10-20T22:33:57.013Z,9.41
2022-10-20T22:36:24.720Z,9.36
2022-10-20T22:38:52.375Z,9.34
2022-10-20T22:41:19.974Z,9.31
2022-10-20T22:43:47.591Z,9.31
2022-10-20T22:46:16.159Z,9.25
2022-10-20T22:48:45.160Z,9.30
2022-10-20T22:51:12.890Z,9.25
2022-10-20T22:53:41.292Z,9.35
2022-10-20T22:56:19.336Z,9.14
2022-10-20T22:58:48.306Z,9.12
2022-10-20T23:01:17.690Z,9.20
2022-10-20T23:03:45.762Z,9.30
2022-10-20T23:06:20.313Z,9.30
2022-10-20T23:08:50.621Z,9.10
2022-10-20T23:11:21.214Z,9.08
2022-10-20T23:13:50.159Z,9.08
2022-10-20T23:16:18.956Z,9.14
2022-10-20T23:18:46.693Z,9.08
2022-10-20T23:21:15.379Z,9.15
2022-10-20T23:23:42.990Z,9.17
2022-10-20T23:26:10.859Z,9.17
2022-10-20T23:28:38.611Z,9.22
2022-10-20T23:31:16.747Z,9.05
2022-10-20T23:33:45.268Z,9.11
2022-10-20T23:36:14.084Z,9.24
2022-10-20T23:38:42.524Z,9.14
2022-10-20T23:41:10.404Z,9.18
2022-10-20T23:43:38.073Z,9.21
2022-10-20T23:46:06.081Z,9.10
2022-10-20T23:48:34.046Z,9.12
2022-10-20T23:51:01.738Z,9.08
2022-10-20T23:53:29.531Z,8.99
2022-10-20T23:55:57.747Z,9.05
2022-10-20T23:58:25.536Z,9.34
